sensor_id;sensor_type;location;lat;lon;timestamp;P1;durP1;ratioP1;P2;durP2;ratioP2
68074;SDS011;54864;52.002;5.468;2023-04-30T00:00:07;20.40;;;13.00;;
68074;SDS011;54864;52.002;5.468;2023-04-30T00:01:11;18.75;;;12.40;;
68074;SDS011;54864;52.002;5.468;2023-04-30T00:02:12;20.80;;;12.73;;
68074;SDS011;54864;52.002;5.468;2023-04-30T00:03:13;22.33;;;13.43;;
68074;SDS011;54864;52.002;5.468;2023-04-30T00:04:17;21.63;;;13.18;;
68074;SDS011;54864;52.002;5.468;2023-04-30T00:05:18;25.17;;;12.65;;
68074;SDS011;54864;52.002;5.468;2023-04-30T00:06:19;20.95;;;12.13;;
68074;SDS011;54864;52.002;5.468;2023-04-30T00:07:20;20.40;;;13.00;;
68074;SDS011;54864;52.002;5.468;2023-04-30T00:08:21;20.98;;;12.77;;
68074;SDS011;54864;52.002;5.468;2023-04-30T00:09:26;21.55;;;12.38;;
68074;SDS011;54864;52.002;5.468;2023-04-30T00:10:29;25.23;;;13.65;;
68074;SDS011;54864;52.002;5.468;2023-04-30T00:11:31;19.17;;;12.55;;
68074;SDS011;54864;52.002;5.468;2023-04-30T00:12:33;21.10;;;13.48;;
68074;SDS011;54864;52.002;5.468;2023-04-30T00:13:35;23.83;;;13.60;;
68074;SDS011;54864;52.002;5.468;2023-04-30T00:14:35;21.30;;;12.47;;
68074;SDS011;54864;52.002;5.468;2023-04-30T00:15:37;20.98;;;12.70;;
68074;SDS011;54864;52.002;5.468;2023-04-30T00:16:43;19.45;;;12.65;;
68074;SDS011;54864;52.002;5.468;2023-04-30T00:17:45;23.02;;;13.02;;
68074;SDS011;54864;52.002;5.468;2023-04-30T00:18:49;20.25;;;13.10;;
68074;SDS011;54864;52.002;5.468;2023-04-30T00:19:50;21.87;;;13.50;;
68074;SDS011;54864;52.002;5.468;2023-04-30T00:20:51;21.10;;;13.30;;
68074;SDS011;54864;52.002;5.468;2023-04-30T00:21:53;25.50;;;12.73;;
68074;SDS011;54864;52.002;5.468;2023-04-30T00:22:54;19.80;;;12.75;;
68074;SDS011;54864;52.002;5.468;2023-04-30T00:23:55;21.63;;;13.30;;
68074;SDS011;54864;52.002;5.468;2023-04-30T00:25:02;19.42;;;13.23;;
68074;SDS011;54864;52.002;5.468;2023-04-30T00:26:04;20.25;;;12.93;;
68074;SDS011;54864;52.002;5.468;2023-04-30T00:27:04;19.47;;;13.07;;
68074;SDS011;54864;52.002;5.468;2023-04-30T00:28:07;22.67;;;13.07;;
68074;SDS011;54864;52.002;5.468;2023-04-30T00:29:08;23.98;;;13.95;;
68074;SDS011;54864;52.002;5.468;2023-04-30T00:30:10;18.73;;;13.45;;
68074;SDS011;54864;52.002;5.468;2023-04-30T00:31:12;24.73;;;13.70;;
68074;SDS011;54864;52.002;5.468;2023-04-30T00:32:15;20.42;;;13.32;;
68074;SDS011;54864;52.002;5.468;2023-04-30T00:33:17;22.10;;;13.50;;
68074;SDS011;54864;52.002;5.468;2023-04-30T00:34:20;18.70;;;13.83;;
68074;SDS011;54864;52.002;5.468;2023-04-30T00:35:22;22.70;;;13.80;;
68074;SDS011;54864;52.002;5.468;2023-04-30T00:36:23;21.90;;;13.10;;
68074;SDS011;54864;52.002;5.468;2023-04-30T00:37:24;22.88;;;13.98;;
68074;SDS011;54864;52.002;5.468;2023-04-30T00:38:27;24.23;;;14.10;;
68074;SDS011;54864;52.002;5.468;2023-04-30T00:39:32;21.80;;;13.18;;
68074;SDS011;54864;52.002;5.468;2023-04-30T00:40:33;22.27;;;13.33;;
68074;SDS011;54864;52.002;5.468;2023-04-30T00:41:37;21.33;;;12.98;;
68074;SDS011;54864;52.002;5.468;2023-04-30T00:42:41;18.75;;;13.07;;
68074;SDS011;54864;52.002;5.468;2023-04-30T00:43:44;19.50;;;13.43;;
68074;SDS011;54864;52.002;5.468;2023-04-30T00:44:46;18.92;;;13.48;;
68074;SDS011;54864;52.002;5.468;2023-04-30T00:45:47;18.75;;;13.48;;
68074;SDS011;54864;52.002;5.468;2023-04-30T00:46:48;22.00;;;13.60;;
68074;SDS011;54864;52.002;5.468;2023-04-30T00:47:49;20.55;;;13.57;;
68074;SDS011;54864;52.002;5.468;2023-04-30T00:48:50;19.60;;;12.53;;
68074;SDS011;54864;52.002;5.468;2023-04-30T00:49:56;22.90;;;13.27;;
68074;SDS011;54864;52.002;5.468;2023-04-30T00:50:57;19.08;;;13.43;;
68074;SDS011;54864;52.002;5.468;2023-04-30T00:51:58;20.55;;;13.93;;
68074;SDS011;54864;52.002;5.468;2023-04-30T00:53:00;19.45;;;12.75;;
68074;SDS011;54864;52.002;5.468;2023-04-30T00:54:04;20.48;;;13.60;;
68074;SDS011;54864;52.002;5.468;2023-04-30T00:55:07;20.70;;;13.27;;
68074;SDS011;54864;52.002;5.468;2023-04-30T00:56:09;19.52;;;13.90;;
68074;SDS011;54864;52.002;5.468;2023-04-30T00:57:11;20.67;;;13.35;;
68074;SDS011;54864;52.002;5.468;2023-04-30T00:58:13;19.55;;;12.40;;
68074;SDS011;54864;52.002;5.468;2023-04-30T00:59:15;20.33;;;13.27;;
68074;SDS011;54864;52.002;5.468;2023-04-30T01:00:17;19.30;;;13.02;;
68074;SDS011;54864;52.002;5.468;2023-04-30T01:01:18;22.40;;;13.15;;
68074;SDS011;54864;52.002;5.468;2023-04-30T01:02:20;19.63;;;13.10;;
68074;SDS011;54864;52.002;5.468;2023-04-30T01:03:21;19.27;;;13.20;;
68074;SDS011;54864;52.002;5.468;2023-04-30T01:04:23;20.50;;;13.30;;
68074;SDS011;54864;52.002;5.468;2023-04-30T01:05:27;20.98;;;13.05;;
68074;SDS011;54864;52.002;5.468;2023-04-30T01:06:32;23.38;;;13.48;;
68074;SDS011;54864;52.002;5.468;2023-04-30T01:07:33;21.95;;;12.98;;
68074;SDS011;54864;52.002;5.468;2023-04-30T01:08:37;20.15;;;12.88;;
68074;SDS011;54864;52.002;5.468;2023-04-30T01:09:38;21.80;;;13.50;;
68074;SDS011;54864;52.002;5.468;2023-04-30T01:10:40;21.23;;;13.73;;
68074;SDS011;54864;52.002;5.468;2023-04-30T01:11:49;22.08;;;13.20;;
68074;SDS011;54864;52.002;5.468;2023-04-30T01:12:58;24.98;;;15.18;;
68074;SDS011;54864;52.002;5.468;2023-04-30T01:14:08;22.52;;;13.52;;
68074;SDS011;54864;52.002;5.468;2023-04-30T01:15:16;20.35;;;14.05;;
68074;SDS011;54864;52.002;5.468;2023-04-30T01:16:22;20.75;;;13.75;;
68074;SDS011;54864;52.002;5.468;2023-04-30T01:17:28;20.77;;;13.57;;
68074;SDS011;54864;52.002;5.468;2023-04-30T01:18:34;20.00;;;14.10;;
68074;SDS011;54864;52.002;5.468;2023-04-30T01:19:44;21.63;;;13.40;;
68074;SDS011;54864;52.002;5.468;2023-04-30T01:20:46;21.88;;;14.40;;
68074;SDS011;54864;52.002;5.468;2023-04-30T01:21:50;21.33;;;13.30;;
68074;SDS011;54864;52.002;5.468;2023-04-30T01:22:54;21.17;;;13.52;;
68074;SDS011;54864;52.002;5.468;2023-04-30T01:24:13;23.20;;;14.73;;
68074;SDS011;54864;52.002;5.468;2023-04-30T01:25:34;21.63;;;13.10;;
68074;SDS011;54864;52.002;5.468;2023-04-30T01:26:51;21.80;;;13.10;;
68074;SDS011;54864;52.002;5.468;2023-04-30T01:28:04;21.10;;;13.20;;
68074;SDS011;54864;52.002;5.468;2023-04-30T01:29:11;22.92;;;13.48;;
68074;SDS011;54864;52.002;5.468;2023-04-30T01:30:14;20.42;;;13.70;;
68074;SDS011;54864;52.002;5.468;2023-04-30T01:31:20;24.65;;;13.55;;
68074;SDS011;54864;52.002;5.468;2023-04-30T01:32:23;21.33;;;13.70;;
68074;SDS011;54864;52.002;5.468;2023-04-30T01:33:25;18.42;;;13.80;;
68074;SDS011;54864;52.002;5.468;2023-04-30T01:34:26;22.88;;;14.45;;
68074;SDS011;54864;52.002;5.468;2023-04-30T01:37:04;21.15;;;13.75;;
68074;SDS011;54864;52.002;5.468;2023-04-30T01:38:17;22.75;;;14.45;;
68074;SDS011;54864;52.002;5.468;2023-04-30T01:39:30;24.83;;;13.82;;
68074;SDS011;54864;52.002;5.468;2023-04-30T01:40:46;24.52;;;14.90;;
68074;SDS011;54864;52.002;5.468;2023-04-30T01:41:57;22.33;;;13.30;;
68074;SDS011;54864;52.002;5.468;2023-04-30T01:43:18;19.73;;;13.45;;
68074;SDS011;54864;52.002;5.468;2023-04-30T01:44:23;20.52;;;13.70;;
68074;SDS011;54864;52.002;5.468;2023-04-30T01:45:46;21.65;;;13.20;;
68074;SDS011;54864;52.002;5.468;2023-04-30T01:46:57;21.77;;;13.65;;
68074;SDS011;54864;52.002;5.468;2023-04-30T01:48:07;18.30;;;13.70;;
68074;SDS011;54864;52.002;5.468;2023-04-30T01:49:21;18.33;;;13.32;;
68074;SDS011;54864;52.002;5.468;2023-04-30T01:50:32;20.75;;;13.32;;
68074;SDS011;54864;52.002;5.468;2023-04-30T01:51:41;20.90;;;13.32;;
68074;SDS011;54864;52.002;5.468;2023-04-30T01:52:45;21.35;;;13.48;;
68074;SDS011;54864;52.002;5.468;2023-04-30T01:53:48;21.02;;;13.45;;
68074;SDS011;54864;52.002;5.468;2023-04-30T01:54:50;20.90;;;13.27;;
68074;SDS011;54864;52.002;5.468;2023-04-30T01:55:56;20.95;;;13.43;;
68074;SDS011;54864;52.002;5.468;2023-04-30T01:57:02;19.13;;;13.05;;
68074;SDS011;54864;52.002;5.468;2023-04-30T01:58:08;21.67;;;13.73;;
68074;SDS011;54864;52.002;5.468;2023-04-30T01:59:11;21.95;;;13.75;;
68074;SDS011;54864;52.002;5.468;2023-04-30T02:00:15;19.92;;;13.75;;
68074;SDS011;54864;52.002;5.468;2023-04-30T02:01:26;21.10;;;13.25;;
68074;SDS011;54864;52.002;5.468;2023-04-30T02:02:31;18.23;;;13.35;;
68074;SDS011;54864;52.002;5.468;2023-04-30T02:03:32;20.53;;;14.57;;
68074;SDS011;54864;52.002;5.468;2023-04-30T02:04:34;20.98;;;13.68;;
68074;SDS011;54864;52.002;5.468;2023-04-30T02:05:35;20.70;;;14.52;;
68074;SDS011;54864;52.002;5.468;2023-04-30T02:06:37;21.70;;;14.82;;
68074;SDS011;54864;52.002;5.468;2023-04-30T02:07:38;23.13;;;14.15;;
68074;SDS011;54864;52.002;5.468;2023-04-30T02:08:40;21.73;;;14.30;;
68074;SDS011;54864;52.002;5.468;2023-04-30T02:09:41;20.77;;;14.80;;
68074;SDS011;54864;52.002;5.468;2023-04-30T02:10:43;23.10;;;14.18;;
68074;SDS011;54864;52.002;5.468;2023-04-30T02:11:46;22.17;;;14.90;;
68074;SDS011;54864;52.002;5.468;2023-04-30T02:12:47;21.23;;;13.75;;
68074;SDS011;54864;52.002;5.468;2023-04-30T02:13:48;20.98;;;14.60;;
68074;SDS011;54864;52.002;5.468;2023-04-30T02:14:53;20.40;;;14.63;;
68074;SDS011;54864;52.002;5.468;2023-04-30T02:15:56;20.50;;;14.88;;
68074;SDS011;54864;52.002;5.468;2023-04-30T02:16:58;26.88;;;15.80;;
68074;SDS011;54864;52.002;5.468;2023-04-30T02:18:01;28.67;;;15.10;;
68074;SDS011;54864;52.002;5.468;2023-04-30T02:19:03;19.42;;;13.98;;
68074;SDS011;54864;52.002;5.468;2023-04-30T02:20:04;20.33;;;13.65;;
68074;SDS011;54864;52.002;5.468;2023-04-30T02:21:10;23.13;;;14.43;;
68074;SDS011;54864;52.002;5.468;2023-04-30T02:22:11;22.25;;;14.20;;
68074;SDS011;54864;52.002;5.468;2023-04-30T02:23:13;20.92;;;13.65;;
68074;SDS011;54864;52.002;5.468;2023-04-30T02:24:15;21.63;;;15.13;;
68074;SDS011;54864;52.002;5.468;2023-04-30T02:25:19;20.23;;;13.90;;
68074;SDS011;54864;52.002;5.468;2023-04-30T02:26:20;23.40;;;14.30;;
68074;SDS011;54864;52.002;5.468;2023-04-30T02:27:22;23.45;;;14.10;;
68074;SDS011;54864;52.002;5.468;2023-04-30T02:28:24;21.50;;;13.30;;
68074;SDS011;54864;52.002;5.468;2023-04-30T02:29:26;22.20;;;13.20;;
68074;SDS011;54864;52.002;5.468;2023-04-30T02:30:28;21.08;;;14.13;;
68074;SDS011;54864;52.002;5.468;2023-04-30T02:31:30;22.92;;;14.13;;
68074;SDS011;54864;52.002;5.468;2023-04-30T02:32:31;19.80;;;13.93;;
68074;SDS011;54864;52.002;5.468;2023-04-30T02:33:32;21.85;;;13.80;;
68074;SDS011;54864;52.002;5.468;2023-04-30T02:34:36;21.63;;;13.88;;
68074;SDS011;54864;52.002;5.468;2023-04-30T02:35:39;20.90;;;14.30;;
68074;SDS011;54864;52.002;5.468;2023-04-30T02:36:40;23.95;;;14.02;;
68074;SDS011;54864;52.002;5.468;2023-04-30T02:37:44;20.77;;;14.25;;
68074;SDS011;54864;52.002;5.468;2023-04-30T02:38:45;21.20;;;14.23;;
68074;SDS011;54864;52.002;5.468;2023-04-30T02:39:47;22.83;;;14.45;;
68074;SDS011;54864;52.002;5.468;2023-04-30T02:40:47;20.20;;;14.52;;
68074;SDS011;54864;52.002;5.468;2023-04-30T02:41:49;17.83;;;13.73;;
68074;SDS011;54864;52.002;5.468;2023-04-30T02:42:50;23.63;;;13.48;;
68074;SDS011;54864;52.002;5.468;2023-04-30T02:43:53;18.13;;;13.60;;
68074;SDS011;54864;52.002;5.468;2023-04-30T02:44:54;20.13;;;14.18;;
68074;SDS011;54864;52.002;5.468;2023-04-30T02:45:57;18.08;;;12.75;;
68074;SDS011;54864;52.002;5.468;2023-04-30T02:46:57;22.40;;;13.85;;
68074;SDS011;54864;52.002;5.468;2023-04-30T02:48:00;23.45;;;14.15;;
68074;SDS011;54864;52.002;5.468;2023-04-30T02:49:01;18.17;;;13.03;;
68074;SDS011;54864;52.002;5.468;2023-04-30T02:50:02;20.80;;;13.98;;
68074;SDS011;54864;52.002;5.468;2023-04-30T02:51:04;19.38;;;13.63;;
68074;SDS011;54864;52.002;5.468;2023-04-30T02:52:06;20.45;;;13.93;;
68074;SDS011;54864;52.002;5.468;2023-04-30T02:53:08;21.60;;;13.35;;
68074;SDS011;54864;52.002;5.468;2023-04-30T02:54:10;20.05;;;13.15;;
68074;SDS011;54864;52.002;5.468;2023-04-30T02:55:11;19.50;;;13.03;;
68074;SDS011;54864;52.002;5.468;2023-04-30T02:56:12;18.48;;;12.95;;
68074;SDS011;54864;52.002;5.468;2023-04-30T02:57:13;20.63;;;13.07;;
68074;SDS011;54864;52.002;5.468;2023-04-30T02:58:15;17.87;;;13.13;;
68074;SDS011;54864;52.002;5.468;2023-04-30T02:59:18;19.02;;;13.13;;
68074;SDS011;54864;52.002;5.468;2023-04-30T03:00:20;16.60;;;12.30;;
68074;SDS011;54864;52.002;5.468;2023-04-30T03:01:23;17.63;;;12.90;;
68074;SDS011;54864;52.002;5.468;2023-04-30T03:02:25;22.08;;;13.23;;
68074;SDS011;54864;52.002;5.468;2023-04-30T03:03:32;19.00;;;12.50;;
68074;SDS011;54864;52.002;5.468;2023-04-30T03:04:37;18.73;;;12.82;;
68074;SDS011;54864;52.002;5.468;2023-04-30T03:05:37;17.88;;;12.82;;
68074;SDS011;54864;52.002;5.468;2023-04-30T03:06:39;18.40;;;12.95;;
68074;SDS011;54864;52.002;5.468;2023-04-30T03:07:39;25.87;;;13.40;;
68074;SDS011;54864;52.002;5.468;2023-04-30T03:08:41;19.88;;;12.75;;
68074;SDS011;54864;52.002;5.468;2023-04-30T03:09:42;19.05;;;13.07;;
68074;SDS011;54864;52.002;5.468;2023-04-30T03:10:44;19.52;;;12.90;;
68074;SDS011;54864;52.002;5.468;2023-04-30T03:11:44;20.37;;;12.73;;
68074;SDS011;54864;52.002;5.468;2023-04-30T03:12:46;17.67;;;12.82;;
68074;SDS011;54864;52.002;5.468;2023-04-30T03:13:46;17.13;;;11.93;;
68074;SDS011;54864;52.002;5.468;2023-04-30T03:14:50;18.55;;;12.52;;
68074;SDS011;54864;52.002;5.468;2023-04-30T03:15:55;18.58;;;12.68;;
68074;SDS011;54864;52.002;5.468;2023-04-30T03:16:58;19.73;;;13.02;;
68074;SDS011;54864;52.002;5.468;2023-04-30T03:17:59;17.63;;;12.88;;
68074;SDS011;54864;52.002;5.468;2023-04-30T03:19:01;22.50;;;12.88;;
68074;SDS011;54864;52.002;5.468;2023-04-30T03:20:01;19.77;;;13.15;;
68074;SDS011;54864;52.002;5.468;2023-04-30T03:21:03;18.67;;;12.05;;
68074;SDS011;54864;52.002;5.468;2023-04-30T03:22:07;23.15;;;13.07;;
68074;SDS011;54864;52.002;5.468;2023-04-30T03:23:09;20.70;;;12.90;;
68074;SDS011;54864;52.002;5.468;2023-04-30T03:24:09;18.25;;;12.13;;
68074;SDS011;54864;52.002;5.468;2023-04-30T03:25:11;20.90;;;12.40;;
68074;SDS011;54864;52.002;5.468;2023-04-30T03:26:12;15.18;;;11.65;;
68074;SDS011;54864;52.002;5.468;2023-04-30T03:27:13;19.77;;;12.10;;
68074;SDS011;54864;52.002;5.468;2023-04-30T03:28:15;17.58;;;12.10;;
68074;SDS011;54864;52.002;5.468;2023-04-30T03:29:17;17.00;;;12.40;;
68074;SDS011;54864;52.002;5.468;2023-04-30T03:30:18;17.60;;;12.10;;
68074;SDS011;54864;52.002;5.468;2023-04-30T03:31:20;17.58;;;12.07;;
68074;SDS011;54864;52.002;5.468;2023-04-30T03:32:22;19.65;;;12.65;;
68074;SDS011;54864;52.002;5.468;2023-04-30T03:33:26;19.00;;;11.90;;
68074;SDS011;54864;52.002;5.468;2023-04-30T03:34:30;16.98;;;12.35;;
68074;SDS011;54864;52.002;5.468;2023-04-30T03:35:32;19.00;;;12.27;;
68074;SDS011;54864;52.002;5.468;2023-04-30T03:36:33;15.48;;;11.52;;
68074;SDS011;54864;52.002;5.468;2023-04-30T03:37:35;18.52;;;12.50;;
68074;SDS011;54864;52.002;5.468;2023-04-30T03:38:35;16.85;;;11.70;;
68074;SDS011;54864;52.002;5.468;2023-04-30T03:39:37;19.00;;;12.90;;
68074;SDS011;54864;52.002;5.468;2023-04-30T03:40:40;18.95;;;12.45;;
68074;SDS011;54864;52.002;5.468;2023-04-30T03:41:42;20.15;;;13.18;;
68074;SDS011;54864;52.002;5.468;2023-04-30T03:42:46;18.17;;;12.77;;
68074;SDS011;54864;52.002;5.468;2023-04-30T03:43:48;18.35;;;12.85;;
68074;SDS011;54864;52.002;5.468;2023-04-30T03:44:48;20.23;;;12.95;;
68074;SDS011;54864;52.002;5.468;2023-04-30T03:45:50;17.98;;;12.93;;
68074;SDS011;54864;52.002;5.468;2023-04-30T03:46:54;17.25;;;12.32;;
68074;SDS011;54864;52.002;5.468;2023-04-30T03:47:57;17.20;;;12.05;;
68074;SDS011;54864;52.002;5.468;2023-04-30T03:48:58;17.45;;;12.40;;
68074;SDS011;54864;52.002;5.468;2023-04-30T03:50:02;18.90;;;13.23;;
68074;SDS011;54864;52.002;5.468;2023-04-30T03:51:03;19.05;;;12.82;;
68074;SDS011;54864;52.002;5.468;2023-04-30T03:52:05;16.35;;;12.10;;
68074;SDS011;54864;52.002;5.468;2023-04-30T03:53:06;21.25;;;13.10;;
68074;SDS011;54864;52.002;5.468;2023-04-30T03:54:07;15.75;;;12.20;;
68074;SDS011;54864;52.002;5.468;2023-04-30T03:55:08;20.20;;;12.80;;
68074;SDS011;54864;52.002;5.468;2023-04-30T03:56:10;18.13;;;12.48;;
68074;SDS011;54864;52.002;5.468;2023-04-30T03:57:11;19.15;;;12.55;;
68074;SDS011;54864;52.002;5.468;2023-04-30T03:58:13;21.92;;;12.52;;
68074;SDS011;54864;52.002;5.468;2023-04-30T03:59:14;15.98;;;11.57;;
68074;SDS011;54864;52.002;5.468;2023-04-30T04:00:19;19.42;;;12.30;;
68074;SDS011;54864;52.002;5.468;2023-04-30T04:01:20;17.67;;;12.65;;
68074;SDS011;54864;52.002;5.468;2023-04-30T04:02:21;16.88;;;12.32;;
68074;SDS011;54864;52.002;5.468;2023-04-30T04:03:23;16.75;;;11.65;;
68074;SDS011;54864;52.002;5.468;2023-04-30T04:04:25;17.90;;;11.80;;
68074;SDS011;54864;52.002;5.468;2023-04-30T04:05:26;18.98;;;12.55;;
68074;SDS011;54864;52.002;5.468;2023-04-30T04:06:28;20.55;;;11.77;;
68074;SDS011;54864;52.002;5.468;2023-04-30T04:07:28;17.50;;;12.60;;
68074;SDS011;54864;52.002;5.468;2023-04-30T04:08:30;20.98;;;11.70;;
68074;SDS011;54864;52.002;5.468;2023-04-30T04:09:31;18.02;;;12.55;;
68074;SDS011;54864;52.002;5.468;2023-04-30T04:10:33;16.92;;;11.57;;
68074;SDS011;54864;52.002;5.468;2023-04-30T04:11:34;15.95;;;11.68;;
68074;SDS011;54864;52.002;5.468;2023-04-30T04:12:42;17.05;;;12.00;;
68074;SDS011;54864;52.002;5.468;2023-04-30T04:13:42;22.05;;;11.77;;
68074;SDS011;54864;52.002;5.468;2023-04-30T04:14:45;17.55;;;11.95;;
68074;SDS011;54864;52.002;5.468;2023-04-30T04:15:45;18.50;;;12.23;;
68074;SDS011;54864;52.002;5.468;2023-04-30T04:16:47;16.50;;;12.50;;
68074;SDS011;54864;52.002;5.468;2023-04-30T04:17:47;16.90;;;11.18;;
68074;SDS011;54864;52.002;5.468;2023-04-30T04:18:50;16.52;;;12.07;;
68074;SDS011;54864;52.002;5.468;2023-04-30T04:19:54;15.75;;;11.60;;
68074;SDS011;54864;52.002;5.468;2023-04-30T04:20:56;17.73;;;11.70;;
68074;SDS011;54864;52.002;5.468;2023-04-30T04:21:57;18.07;;;11.53;;
68074;SDS011;54864;52.002;5.468;2023-04-30T04:23:01;18.50;;;11.32;;
68074;SDS011;54864;52.002;5.468;2023-04-30T04:24:02;13.37;;;11.20;;
68074;SDS011;54864;52.002;5.468;2023-04-30T04:25:07;16.17;;;11.20;;
68074;SDS011;54864;52.002;5.468;2023-04-30T04:26:08;16.90;;;11.35;;
68074;SDS011;54864;52.002;5.468;2023-04-30T04:27:10;15.73;;;10.43;;
68074;SDS011;54864;52.002;5.468;2023-04-30T04:28:11;14.53;;;10.67;;
68074;SDS011;54864;52.002;5.468;2023-04-30T04:29:12;15.32;;;11.50;;
68074;SDS011;54864;52.002;5.468;2023-04-30T04:30:14;17.00;;;11.32;;
68074;SDS011;54864;52.002;5.468;2023-04-30T04:31:16;15.40;;;11.10;;
68074;SDS011;54864;52.002;5.468;2023-04-30T04:32:18;15.77;;;11.63;;
68074;SDS011;54864;52.002;5.468;2023-04-30T04:33:19;17.58;;;11.15;;
68074;SDS011;54864;52.002;5.468;2023-04-30T04:34:22;16.20;;;11.45;;
68074;SDS011;54864;52.002;5.468;2023-04-30T04:35:23;16.77;;;11.25;;
68074;SDS011;54864;52.002;5.468;2023-04-30T04:36:27;21.02;;;12.00;;
68074;SDS011;54864;52.002;5.468;2023-04-30T04:37:29;21.73;;;11.60;;
68074;SDS011;54864;52.002;5.468;2023-04-30T04:38:32;16.10;;;11.57;;
68074;SDS011;54864;52.002;5.468;2023-04-30T04:39:36;16.88;;;11.48;;
68074;SDS011;54864;52.002;5.468;2023-04-30T04:40:36;17.83;;;11.60;;
68074;SDS011;54864;52.002;5.468;2023-04-30T04:41:42;15.65;;;11.68;;
68074;SDS011;54864;52.002;5.468;2023-04-30T04:42:42;18.53;;;11.37;;
68074;SDS011;54864;52.002;5.468;2023-04-30T04:43:44;16.73;;;11.30;;
68074;SDS011;54864;52.002;5.468;2023-04-30T04:44:47;20.95;;;13.00;;
68074;SDS011;54864;52.002;5.468;2023-04-30T04:45:49;19.15;;;12.10;;
68074;SDS011;54864;52.002;5.468;2023-04-30T04:46:51;17.10;;;12.00;;
68074;SDS011;54864;52.002;5.468;2023-04-30T04:47:53;18.58;;;11.32;;
68074;SDS011;54864;52.002;5.468;2023-04-30T04:48:53;19.67;;;11.67;;
68074;SDS011;54864;52.002;5.468;2023-04-30T04:49:59;22.38;;;12.95;;
68074;SDS011;54864;52.002;5.468;2023-04-30T04:51:00;19.58;;;12.23;;
68074;SDS011;54864;52.002;5.468;2023-04-30T04:52:02;18.05;;;11.75;;
68074;SDS011;54864;52.002;5.468;2023-04-30T04:53:04;18.10;;;12.40;;
68074;SDS011;54864;52.002;5.468;2023-04-30T04:54:05;17.88;;;11.52;;
68074;SDS011;54864;52.002;5.468;2023-04-30T04:55:07;17.20;;;11.43;;
68074;SDS011;54864;52.002;5.468;2023-04-30T04:56:08;16.10;;;11.35;;
68074;SDS011;54864;52.002;5.468;2023-04-30T04:57:10;19.40;;;12.88;;
68074;SDS011;54864;52.002;5.468;2023-04-30T04:58:11;17.63;;;12.50;;
68074;SDS011;54864;52.002;5.468;2023-04-30T04:59:16;22.35;;;12.23;;
68074;SDS011;54864;52.002;5.468;2023-04-30T05:00:23;19.08;;;11.88;;
68074;SDS011;54864;52.002;5.468;2023-04-30T05:01:25;19.23;;;12.20;;
68074;SDS011;54864;52.002;5.468;2023-04-30T05:02:27;17.40;;;11.90;;
68074;SDS011;54864;52.002;5.468;2023-04-30T05:03:33;22.33;;;12.10;;
68074;SDS011;54864;52.002;5.468;2023-04-30T05:04:36;20.05;;;12.38;;
68074;SDS011;54864;52.002;5.468;2023-04-30T05:05:38;16.52;;;11.93;;
68074;SDS011;54864;52.002;5.468;2023-04-30T05:06:39;17.23;;;12.07;;
68074;SDS011;54864;52.002;5.468;2023-04-30T05:07:41;16.92;;;11.95;;
68074;SDS011;54864;52.002;5.468;2023-04-30T05:08:42;19.00;;;12.17;;
68074;SDS011;54864;52.002;5.468;2023-04-30T05:09:43;15.90;;;11.55;;
68074;SDS011;54864;52.002;5.468;2023-04-30T05:10:44;18.08;;;12.38;;
68074;SDS011;54864;52.002;5.468;2023-04-30T05:11:46;18.33;;;12.27;;
68074;SDS011;54864;52.002;5.468;2023-04-30T05:12:48;17.88;;;11.93;;
68074;SDS011;54864;52.002;5.468;2023-04-30T05:13:49;16.63;;;11.05;;
68074;SDS011;54864;52.002;5.468;2023-04-30T05:14:50;17.07;;;11.93;;
68074;SDS011;54864;52.002;5.468;2023-04-30T05:15:52;20.42;;;12.50;;
68074;SDS011;54864;52.002;5.468;2023-04-30T05:16:53;18.63;;;11.88;;
68074;SDS011;54864;52.002;5.468;2023-04-30T05:17:54;15.82;;;11.85;;
68074;SDS011;54864;52.002;5.468;2023-04-30T05:18:55;17.50;;;12.52;;
68074;SDS011;54864;52.002;5.468;2023-04-30T05:19:56;13.88;;;11.45;;
68074;SDS011;54864;52.002;5.468;2023-04-30T05:20:59;16.10;;;11.15;;
68074;SDS011;54864;52.002;5.468;2023-04-30T05:22:01;16.77;;;11.15;;
68074;SDS011;54864;52.002;5.468;2023-04-30T05:23:01;18.17;;;11.82;;
68074;SDS011;54864;52.002;5.468;2023-04-30T05:24:03;16.58;;;11.70;;
68074;SDS011;54864;52.002;5.468;2023-04-30T05:25:05;16.98;;;11.38;;
68074;SDS011;54864;52.002;5.468;2023-04-30T05:26:07;18.60;;;12.30;;
68074;SDS011;54864;52.002;5.468;2023-04-30T05:27:08;19.20;;;11.97;;
68074;SDS011;54864;52.002;5.468;2023-04-30T05:28:10;16.88;;;11.70;;
68074;SDS011;54864;52.002;5.468;2023-04-30T05:29:11;16.02;;;11.18;;
68074;SDS011;54864;52.002;5.468;2023-04-30T05:30:13;15.50;;;11.07;;
68074;SDS011;54864;52.002;5.468;2023-04-30T05:31:14;15.88;;;11.02;;
68074;SDS011;54864;52.002;5.468;2023-04-30T05:32:19;25.45;;;11.95;;
68074;SDS011;54864;52.002;5.468;2023-04-30T05:33:21;16.50;;;11.07;;
68074;SDS011;54864;52.002;5.468;2023-04-30T05:34:26;20.85;;;11.13;;
68074;SDS011;54864;52.002;5.468;2023-04-30T05:35:26;15.75;;;11.07;;
68074;SDS011;54864;52.002;5.468;2023-04-30T05:36:30;18.30;;;10.68;;
68074;SDS011;54864;52.002;5.468;2023-04-30T05:37:31;18.25;;;11.35;;
68074;SDS011;54864;52.002;5.468;2023-04-30T05:38:33;17.90;;;11.07;;
68074;SDS011;54864;52.002;5.468;2023-04-30T05:39:33;15.93;;;11.10;;
68074;SDS011;54864;52.002;5.468;2023-04-30T05:40:35;14.38;;;10.55;;
68074;SDS011;54864;52.002;5.468;2023-04-30T05:41:35;20.52;;;11.13;;
68074;SDS011;54864;52.002;5.468;2023-04-30T05:42:37;15.05;;;11.23;;
68074;SDS011;54864;52.002;5.468;2023-04-30T05:43:39;15.65;;;10.27;;
68074;SDS011;54864;52.002;5.468;2023-04-30T05:44:41;15.05;;;10.25;;
68074;SDS011;54864;52.002;5.468;2023-04-30T05:45:42;16.50;;;10.55;;
68074;SDS011;54864;52.002;5.468;2023-04-30T05:46:47;18.20;;;10.25;;
68074;SDS011;54864;52.002;5.468;2023-04-30T05:47:47;19.13;;;11.07;;
68074;SDS011;54864;52.002;5.468;2023-04-30T05:48:49;17.05;;;10.85;;
68074;SDS011;54864;52.002;5.468;2023-04-30T05:49:50;15.53;;;10.50;;
68074;SDS011;54864;52.002;5.468;2023-04-30T05:50:51;15.75;;;10.38;;
68074;SDS011;54864;52.002;5.468;2023-04-30T05:51:53;16.13;;;10.77;;
68074;SDS011;54864;52.002;5.468;2023-04-30T05:52:55;16.43;;;9.97;;
68074;SDS011;54864;52.002;5.468;2023-04-30T05:53:56;17.40;;;11.00;;
68074;SDS011;54864;52.002;5.468;2023-04-30T05:54:57;20.77;;;11.68;;
68074;SDS011;54864;52.002;5.468;2023-04-30T05:55:58;20.17;;;11.17;;
68074;SDS011;54864;52.002;5.468;2023-04-30T05:57:00;16.77;;;11.05;;
68074;SDS011;54864;52.002;5.468;2023-04-30T05:58:01;23.67;;;11.25;;
68074;SDS011;54864;52.002;5.468;2023-04-30T05:59:02;16.25;;;9.77;;
68074;SDS011;54864;52.002;5.468;2023-04-30T06:00:03;15.23;;;10.38;;
68074;SDS011;54864;52.002;5.468;2023-04-30T06:01:06;21.80;;;10.27;;
68074;SDS011;54864;52.002;5.468;2023-04-30T06:02:12;19.30;;;10.60;;
68074;SDS011;54864;52.002;5.468;2023-04-30T06:03:13;16.67;;;10.70;;
68074;SDS011;54864;52.002;5.468;2023-04-30T06:04:15;16.20;;;10.05;;
68074;SDS011;54864;52.002;5.468;2023-04-30T06:05:17;16.70;;;10.25;;
68074;SDS011;54864;52.002;5.468;2023-04-30T06:06:19;16.00;;;9.73;;
68074;SDS011;54864;52.002;5.468;2023-04-30T06:07:21;15.23;;;10.03;;
68074;SDS011;54864;52.002;5.468;2023-04-30T06:08:30;14.75;;;10.48;;